ZWWW/URC METAR and TAF weather

Enter ICAO airport designator
Station Type Date Time Source
ZWWW METAR 2019/04/20 18:00 UTC NOAA

ZWWW 201800Z 28002MPS 9999 FEW040CB 18/03 Q1013 NOSIG


Station Type Date Time Source
ZWWW Decoded METAR 2019/04/20 18:00 UTC NOAA

Urum-Qi / Diwopu, China (ZWWW) 43-54N 087-28E
Apr 20, 2019 - 02:00 PM EDT / 2019.04.20 1800 UTC
Wind: from the W (280 degrees) at 4 MPH (4 KT):0
Visibility: greater than 7 mile(s):0
Sky conditions: mostly clear
Weather: Cumulonimbus clouds observed
Temperature: 64 F (18 C)
Dew Point: 37 F (3 C)
Relative Humidity: 36%
Pressure (altimeter): 29.91 in. Hg (1013 hPa)
ob: ZWWW 201800Z 28002MPS 9999 FEW040CB 18/03 Q1013 NOSIG
cycle: 18

Station Type Date Time Source
ZWWW TAF 2019/04/20 18:03 UTC NOAA

TAF ZWWW 201521Z 2018/2118 20004MPS CAVOK TX22/2109Z TN13/2023Z
BECMG 2102/2103 36004MPS
BECMG 2113/2114 18004MPS

Example: see airport list